sensor_id;sensor_type;location;lat;lon;timestamp;temperature;humidity
37240;DHT22;23130;48.760;9.178;2023-06-10T00:02:10;16.90;99.90
37240;DHT22;23130;48.760;9.178;2023-06-10T00:04:36;16.80;99.90
37240;DHT22;23130;48.760;9.178;2023-06-10T00:07:03;16.70;99.90
37240;DHT22;23130;48.760;9.178;2023-06-10T00:09:29;16.80;99.90
37240;DHT22;23130;48.760;9.178;2023-06-10T00:11:55;16.70;99.90
37240;DHT22;23130;48.760;9.178;2023-06-10T00:14:20;16.80;99.90
37240;DHT22;23130;48.760;9.178;2023-06-10T00:16:46;16.70;99.90
37240;DHT22;23130;48.760;9.178;2023-06-10T00:19:11;16.70;99.90
37240;DHT22;23130;48.760;9.178;2023-06-10T00:21:39;16.70;99.90
37240;DHT22;23130;48.760;9.178;2023-06-10T00:24:06;16.70;99.90
37240;DHT22;23130;48.760;9.178;2023-06-10T00:26:32;16.60;99.90
37240;DHT22;23130;48.760;9.178;2023-06-10T00:28:58;16.60;99.90
37240;DHT22;23130;48.760;9.178;2023-06-10T00:31:24;16.60;99.90
37240;DHT22;23130;48.760;9.178;2023-06-10T00:33:51;16.50;99.90
37240;DHT22;23130;48.760;9.178;2023-06-10T00:36:17;16.50;99.90
37240;DHT22;23130;48.760;9.178;2023-06-10T00:38:42;16.40;99.90
37240;DHT22;23130;48.760;9.178;2023-06-10T00:41:08;16.40;99.90
37240;DHT22;23130;48.760;9.178;2023-06-10T00:43:34;16.40;99.90
37240;DHT22;23130;48.760;9.178;2023-06-10T00:45:59;16.30;99.90
37240;DHT22;23130;48.760;9.178;2023-06-10T00:48:26;16.30;99.90
37240;DHT22;23130;48.760;9.178;2023-06-10T00:50:52;16.20;99.90
37240;DHT22;23130;48.760;9.178;2023-06-10T00:53:18;16.20;99.90
37240;DHT22;23130;48.760;9.178;2023-06-10T00:55:43;16.20;99.90
37240;DHT22;23130;48.760;9.178;2023-06-10T00:58:09;16.20;99.90
37240;DHT22;23130;48.760;9.178;2023-06-10T01:00:36;16.10;99.90
37240;DHT22;23130;48.760;9.178;2023-06-10T01:03:02;16.00;99.90
37240;DHT22;23130;48.760;9.178;2023-06-10T01:05:27;16.10;99.90
37240;DHT22;23130;48.760;9.178;2023-06-10T01:08:17;16.00;99.90
37240;DHT22;23130;48.760;9.178;2023-06-10T01:10:57;16.00;99.90
37240;DHT22;23130;48.760;9.178;2023-06-10T01:13:25;15.90;99.90
37240;DHT22;23130;48.760;9.178;2023-06-10T01:15:54;16.00;99.90
37240;DHT22;23130;48.760;9.178;2023-06-10T01:18:20;15.90;99.90
37240;DHT22;23130;48.760;9.178;2023-06-10T01:20:47;15.90;99.90
37240;DHT22;23130;48.760;9.178;2023-06-10T01:23:15;15.90;99.90
37240;DHT22;23130;48.760;9.178;2023-06-10T01:25:49;15.90;99.90
37240;DHT22;23130;48.760;9.178;2023-06-10T01:33:49;15.70;99.90
37240;DHT22;23130;48.760;9.178;2023-06-10T01:36:17;15.60;99.90
37240;DHT22;23130;48.760;9.178;2023-06-10T01:38:45;15.50;99.90
37240;DHT22;23130;48.760;9.178;2023-06-10T01:41:13;15.50;99.90
37240;DHT22;23130;48.760;9.178;2023-06-10T01:43:39;15.40;99.90
37240;DHT22;23130;48.760;9.178;2023-06-10T01:46:06;15.40;99.90
37240;DHT22;23130;48.760;9.178;2023-06-10T01:48:32;15.40;99.90
37240;DHT22;23130;48.760;9.178;2023-06-10T01:50:58;15.50;99.90
37240;DHT22;23130;48.760;9.178;2023-06-10T01:53:24;15.60;99.90
37240;DHT22;23130;48.760;9.178;2023-06-10T01:55:50;15.60;99.90
37240;DHT22;23130;48.760;9.178;2023-06-10T01:58:16;15.60;99.90
37240;DHT22;23130;48.760;9.178;2023-06-10T02:00:41;15.50;99.90
37240;DHT22;23130;48.760;9.178;2023-06-10T02:03:07;15.50;99.90
37240;DHT22;23130;48.760;9.178;2023-06-10T02:05:33;15.40;99.90
37240;DHT22;23130;48.760;9.178;2023-06-10T02:07:58;15.40;99.90
37240;DHT22;23130;48.760;9.178;2023-06-10T02:10:24;15.30;99.90
37240;DHT22;23130;48.760;9.178;2023-06-10T02:12:50;15.30;99.90
37240;DHT22;23130;48.760;9.178;2023-06-10T02:15:15;15.30;99.90
37240;DHT22;23130;48.760;9.178;2023-06-10T02:17:41;15.30;99.90
37240;DHT22;23130;48.760;9.178;2023-06-10T02:20:07;15.30;99.90
37240;DHT22;23130;48.760;9.178;2023-06-10T02:22:36;15.20;99.90
37240;DHT22;23130;48.760;9.178;2023-06-10T02:25:02;15.20;99.90
37240;DHT22;23130;48.760;9.178;2023-06-10T02:27:27;15.10;99.90
37240;DHT22;23130;48.760;9.178;2023-06-10T02:29:53;15.10;99.90
37240;DHT22;23130;48.760;9.178;2023-06-10T02:32:18;14.90;99.90
37240;DHT22;23130;48.760;9.178;2023-06-10T02:34:44;14.80;99.90
37240;DHT22;23130;48.760;9.178;2023-06-10T02:37:09;14.80;99.90
37240;DHT22;23130;48.760;9.178;2023-06-10T02:39:35;14.80;99.90
37240;DHT22;23130;48.760;9.178;2023-06-10T02:42:00;14.80;99.90
37240;DHT22;23130;48.760;9.178;2023-06-10T02:44:26;14.80;99.90
37240;DHT22;23130;48.760;9.178;2023-06-10T02:46:51;14.80;99.90
37240;DHT22;23130;48.760;9.178;2023-06-10T02:49:17;14.80;99.90
37240;DHT22;23130;48.760;9.178;2023-06-10T02:51:43;14.80;99.90
37240;DHT22;23130;48.760;9.178;2023-06-10T02:54:08;14.80;99.90
37240;DHT22;23130;48.760;9.178;2023-06-10T02:56:34;14.80;99.90
37240;DHT22;23130;48.760;9.178;2023-06-10T02:59:00;14.70;99.90
37240;DHT22;23130;48.760;9.178;2023-06-10T03:01:26;14.80;99.90
37240;DHT22;23130;48.760;9.178;2023-06-10T03:03:51;14.90;99.90
37240;DHT22;23130;48.760;9.178;2023-06-10T03:06:18;14.90;99.90
37240;DHT22;23130;48.760;9.178;2023-06-10T03:08:43;15.00;99.90
37240;DHT22;23130;48.760;9.178;2023-06-10T03:11:11;15.10;99.90
37240;DHT22;23130;48.760;9.178;2023-06-10T03:13:37;15.10;99.90
37240;DHT22;23130;48.760;9.178;2023-06-10T03:16:03;15.20;99.90
37240;DHT22;23130;48.760;9.178;2023-06-10T03:18:30;15.30;99.90
37240;DHT22;23130;48.760;9.178;2023-06-10T03:20:55;15.30;99.90
37240;DHT22;23130;48.760;9.178;2023-06-10T03:23:22;15.30;99.90
37240;DHT22;23130;48.760;9.178;2023-06-10T03:25:48;15.20;99.90
37240;DHT22;23130;48.760;9.178;2023-06-10T03:28:13;15.20;99.90
37240;DHT22;23130;48.760;9.178;2023-06-10T03:30:39;15.20;99.90
37240;DHT22;23130;48.760;9.178;2023-06-10T03:33:05;15.10;99.90
37240;DHT22;23130;48.760;9.178;2023-06-10T03:35:30;15.10;99.90
37240;DHT22;23130;48.760;9.178;2023-06-10T03:37:58;15.10;99.90
37240;DHT22;23130;48.760;9.178;2023-06-10T03:40:23;15.20;99.90
37240;DHT22;23130;48.760;9.178;2023-06-10T03:42:49;15.20;99.90
37240;DHT22;23130;48.760;9.178;2023-06-10T03:45:14;15.20;99.90
37240;DHT22;23130;48.760;9.178;2023-06-10T03:47:40;15.20;99.90
37240;DHT22;23130;48.760;9.178;2023-06-10T03:50:07;15.20;99.90
37240;DHT22;23130;48.760;9.178;2023-06-10T03:52:34;15.20;99.90
37240;DHT22;23130;48.760;9.178;2023-06-10T03:55:00;15.20;99.90
37240;DHT22;23130;48.760;9.178;2023-06-10T03:57:26;15.30;99.90
37240;DHT22;23130;48.760;9.178;2023-06-10T03:59:51;15.30;99.90
37240;DHT22;23130;48.760;9.178;2023-06-10T04:02:17;15.40;99.90
37240;DHT22;23130;48.760;9.178;2023-06-10T04:04:43;15.40;99.90
37240;DHT22;23130;48.760;9.178;2023-06-10T04:07:09;15.50;99.90
37240;DHT22;23130;48.760;9.178;2023-06-10T04:09:34;15.60;99.90
37240;DHT22;23130;48.760;9.178;2023-06-10T04:12:03;15.70;99.90
37240;DHT22;23130;48.760;9.178;2023-06-10T04:14:31;15.70;99.90
37240;DHT22;23130;48.760;9.178;2023-06-10T04:16:57;16.10;99.90
37240;DHT22;23130;48.760;9.178;2023-06-10T04:19:22;17.00;99.90
37240;DHT22;23130;48.760;9.178;2023-06-10T04:21:48;18.40;99.90
37240;DHT22;23130;48.760;9.178;2023-06-10T04:24:13;20.00;99.90
37240;DHT22;23130;48.760;9.178;2023-06-10T04:26:39;21.30;99.90
37240;DHT22;23130;48.760;9.178;2023-06-10T04:29:04;22.50;99.90
37240;DHT22;23130;48.760;9.178;2023-06-10T04:31:30;23.60;99.90
37240;DHT22;23130;48.760;9.178;2023-06-10T04:33:55;24.70;99.90
37240;DHT22;23130;48.760;9.178;2023-06-10T04:36:21;25.30;99.20
37240;DHT22;23130;48.760;9.178;2023-06-10T04:38:46;25.90;98.20
37240;DHT22;23130;48.760;9.178;2023-06-10T04:41:12;26.30;97.70
37240;DHT22;23130;48.760;9.178;2023-06-10T04:43:38;26.90;96.60
37240;DHT22;23130;48.760;9.178;2023-06-10T04:46:04;27.00;95.90
37240;DHT22;23130;48.760;9.178;2023-06-10T04:48:29;27.10;95.00
37240;DHT22;23130;48.760;9.178;2023-06-10T04:50:55;27.60;94.10
37240;DHT22;23130;48.760;9.178;2023-06-10T04:53:21;27.30;94.10
37240;DHT22;23130;48.760;9.178;2023-06-10T04:55:47;27.20;94.50
37240;DHT22;23130;48.760;9.178;2023-06-10T04:58:14;27.80;93.50
37240;DHT22;23130;48.760;9.178;2023-06-10T05:00:39;28.20;93.70
37240;DHT22;23130;48.760;9.178;2023-06-10T05:03:05;28.40;92.80
37240;DHT22;23130;48.760;9.178;2023-06-10T05:05:31;28.60;92.20
37240;DHT22;23130;48.760;9.178;2023-06-10T05:07:56;28.90;91.80
37240;DHT22;23130;48.760;9.178;2023-06-10T05:10:22;29.20;91.60
37240;DHT22;23130;48.760;9.178;2023-06-10T05:12:48;29.30;91.30
37240;DHT22;23130;48.760;9.178;2023-06-10T05:15:13;29.90;90.90
37240;DHT22;23130;48.760;9.178;2023-06-10T05:17:39;29.60;90.90
37240;DHT22;23130;48.760;9.178;2023-06-10T05:20:05;29.80;90.30
37240;DHT22;23130;48.760;9.178;2023-06-10T05:22:31;30.10;90.20
37240;DHT22;23130;48.760;9.178;2023-06-10T05:24:57;30.20;90.30
37240;DHT22;23130;48.760;9.178;2023-06-10T05:27:23;30.30;89.60
37240;DHT22;23130;48.760;9.178;2023-06-10T05:29:48;30.80;88.70
37240;DHT22;23130;48.760;9.178;2023-06-10T05:32:14;31.30;87.60
37240;DHT22;23130;48.760;9.178;2023-06-10T05:34:40;31.30;87.20
37240;DHT22;23130;48.760;9.178;2023-06-10T05:37:05;31.40;86.00
37240;DHT22;23130;48.760;9.178;2023-06-10T05:39:31;30.90;86.00
37240;DHT22;23130;48.760;9.178;2023-06-10T05:41:57;30.80;86.50
37240;DHT22;23130;48.760;9.178;2023-06-10T05:44:24;30.20;87.50
37240;DHT22;23130;48.760;9.178;2023-06-10T05:46:50;30.60;86.80
37240;DHT22;23130;48.760;9.178;2023-06-10T05:49:16;30.80;87.00
37240;DHT22;23130;48.760;9.178;2023-06-10T05:51:41;31.60;85.80
37240;DHT22;23130;48.760;9.178;2023-06-10T05:54:07;31.00;85.30
37240;DHT22;23130;48.760;9.178;2023-06-10T05:56:32;31.30;86.70
37240;DHT22;23130;48.760;9.178;2023-06-10T05:58:58;32.20;84.60
37240;DHT22;23130;48.760;9.178;2023-06-10T06:01:24;31.80;84.10
37240;DHT22;23130;48.760;9.178;2023-06-10T06:03:49;31.70;84.10
37240;DHT22;23130;48.760;9.178;2023-06-10T06:06:15;32.20;83.70
37240;DHT22;23130;48.760;9.178;2023-06-10T06:08:41;32.40;83.00
37240;DHT22;23130;48.760;9.178;2023-06-10T06:11:06;32.10;82.90
37240;DHT22;23130;48.760;9.178;2023-06-10T06:13:32;31.60;83.70
37240;DHT22;23130;48.760;9.178;2023-06-10T06:15:57;31.40;84.50
37240;DHT22;23130;48.760;9.178;2023-06-10T06:18:23;31.50;84.10
37240;DHT22;23130;48.760;9.178;2023-06-10T06:20:49;31.40;84.70
37240;DHT22;23130;48.760;9.178;2023-06-10T06:23:15;31.50;84.50
37240;DHT22;23130;48.760;9.178;2023-06-10T06:25:40;31.30;83.40
37240;DHT22;23130;48.760;9.178;2023-06-10T06:28:06;31.40;84.00
37240;DHT22;23130;48.760;9.178;2023-06-10T06:30:32;31.60;83.10
37240;DHT22;23130;48.760;9.178;2023-06-10T06:32:58;31.60;83.30
37240;DHT22;23130;48.760;9.178;2023-06-10T06:35:24;31.60;83.20
37240;DHT22;23130;48.760;9.178;2023-06-10T06:37:51;31.00;83.80
37240;DHT22;23130;48.760;9.178;2023-06-10T06:40:16;31.20;83.40
37240;DHT22;23130;48.760;9.178;2023-06-10T06:42:42;31.60;83.30
37240;DHT22;23130;48.760;9.178;2023-06-10T06:45:07;31.80;83.60
37240;DHT22;23130;48.760;9.178;2023-06-10T06:47:33;31.80;82.50
37240;DHT22;23130;48.760;9.178;2023-06-10T06:49:59;31.90;84.00
37240;DHT22;23130;48.760;9.178;2023-06-10T06:52:24;32.50;81.80
37240;DHT22;23130;48.760;9.178;2023-06-10T06:54:50;31.50;83.10
37240;DHT22;23130;48.760;9.178;2023-06-10T06:57:15;32.40;82.10
37240;DHT22;23130;48.760;9.178;2023-06-10T06:59:41;32.40;83.00
37240;DHT22;23130;48.760;9.178;2023-06-10T07:02:07;32.50;82.00
37240;DHT22;23130;48.760;9.178;2023-06-10T07:04:32;32.30;81.50
37240;DHT22;23130;48.760;9.178;2023-06-10T07:06:58;31.80;83.00
37240;DHT22;23130;48.760;9.178;2023-06-10T07:09:23;31.70;83.80
37240;DHT22;23130;48.760;9.178;2023-06-10T07:11:49;31.30;83.60
37240;DHT22;23130;48.760;9.178;2023-06-10T07:14:14;31.50;84.40
37240;DHT22;23130;48.760;9.178;2023-06-10T07:16:40;31.40;84.80
37240;DHT22;23130;48.760;9.178;2023-06-10T07:19:05;31.00;84.50
37240;DHT22;23130;48.760;9.178;2023-06-10T07:21:31;30.80;84.60
37240;DHT22;23130;48.760;9.178;2023-06-10T07:23:58;30.90;84.30
37240;DHT22;23130;48.760;9.178;2023-06-10T07:26:26;31.00;84.50
37240;DHT22;23130;48.760;9.178;2023-06-10T07:28:52;31.20;84.90
37240;DHT22;23130;48.760;9.178;2023-06-10T07:31:17;31.10;83.80
37240;DHT22;23130;48.760;9.178;2023-06-10T07:33:43;31.20;83.90
37240;DHT22;23130;48.760;9.178;2023-06-10T07:36:09;31.40;84.90
37240;DHT22;23130;48.760;9.178;2023-06-10T07:38:35;31.20;85.40
37240;DHT22;23130;48.760;9.178;2023-06-10T07:41:00;31.50;83.90
37240;DHT22;23130;48.760;9.178;2023-06-10T07:43:26;31.30;83.60
37240;DHT22;23130;48.760;9.178;2023-06-10T07:45:52;31.20;83.40
37240;DHT22;23130;48.760;9.178;2023-06-10T07:48:17;30.60;83.90
37240;DHT22;23130;48.760;9.178;2023-06-10T07:50:43;30.20;84.70
37240;DHT22;23130;48.760;9.178;2023-06-10T07:53:08;30.10;85.70
37240;DHT22;23130;48.760;9.178;2023-06-10T07:55:34;30.30;85.40
37240;DHT22;23130;48.760;9.178;2023-06-10T07:57:59;30.20;85.10
37240;DHT22;23130;48.760;9.178;2023-06-10T08:00:25;30.00;86.20
37240;DHT22;23130;48.760;9.178;2023-06-10T08:02:51;30.00;86.00
37240;DHT22;23130;48.760;9.178;2023-06-10T08:05:17;30.10;85.40
37240;DHT22;23130;48.760;9.178;2023-06-10T08:07:43;30.60;84.50
37240;DHT22;23130;48.760;9.178;2023-06-10T08:10:09;30.70;85.20
37240;DHT22;23130;48.760;9.178;2023-06-10T08:12:35;30.70;85.10
37240;DHT22;23130;48.760;9.178;2023-06-10T08:15:01;30.70;85.30
37240;DHT22;23130;48.760;9.178;2023-06-10T08:17:27;30.60;85.60
37240;DHT22;23130;48.760;9.178;2023-06-10T08:19:52;30.30;85.70
37240;DHT22;23130;48.760;9.178;2023-06-10T08:22:18;30.00;86.30
37240;DHT22;23130;48.760;9.178;2023-06-10T08:24:44;29.60;87.40
37240;DHT22;23130;48.760;9.178;2023-06-10T08:27:09;29.70;87.20
37240;DHT22;23130;48.760;9.178;2023-06-10T08:29:35;29.70;86.80
37240;DHT22;23130;48.760;9.178;2023-06-10T08:32:01;29.60;87.70
37240;DHT22;23130;48.760;9.178;2023-06-10T08:34:27;29.20;88.30
37240;DHT22;23130;48.760;9.178;2023-06-10T08:36:52;28.80;87.60
37240;DHT22;23130;48.760;9.178;2023-06-10T08:39:21;28.10;90.30
37240;DHT22;23130;48.760;9.178;2023-06-10T08:44:40;27.40;91.10
37240;DHT22;23130;48.760;9.178;2023-06-10T08:47:16;27.00;91.00
37240;DHT22;23130;48.760;9.178;2023-06-10T08:49:45;26.60;91.60
37240;DHT22;23130;48.760;9.178;2023-06-10T08:52:15;26.20;92.40
37240;DHT22;23130;48.760;9.178;2023-06-10T08:54:45;26.20;92.50
37240;DHT22;23130;48.760;9.178;2023-06-10T08:57:13;26.10;92.40
37240;DHT22;23130;48.760;9.178;2023-06-10T08:59:39;26.00;92.00
37240;DHT22;23130;48.760;9.178;2023-06-10T09:02:07;25.90;92.20
37240;DHT22;23130;48.760;9.178;2023-06-10T09:04:34;26.00;92.30
37240;DHT22;23130;48.760;9.178;2023-06-10T09:07:02;26.10;92.50
37240;DHT22;23130;48.760;9.178;2023-06-10T09:09:29;26.00;92.00
37240;DHT22;23130;48.760;9.178;2023-06-10T09:11:56;26.00;92.30
37240;DHT22;23130;48.760;9.178;2023-06-10T09:14:22;25.90;91.90
37240;DHT22;23130;48.760;9.178;2023-06-10T09:16:48;25.90;92.60
37240;DHT22;23130;48.760;9.178;2023-06-10T09:19:15;25.80;92.10
37240;DHT22;23130;48.760;9.178;2023-06-10T09:21:41;25.90;93.00
37240;DHT22;23130;48.760;9.178;2023-06-10T09:24:06;25.90;92.00
37240;DHT22;23130;48.760;9.178;2023-06-10T09:26:32;26.00;92.30
37240;DHT22;23130;48.760;9.178;2023-06-10T09:29:07;26.20;92.00
37240;DHT22;23130;48.760;9.178;2023-06-10T09:31:38;26.20;92.10
37240;DHT22;23130;48.760;9.178;2023-06-10T09:34:07;26.10;91.70
37240;DHT22;23130;48.760;9.178;2023-06-10T09:36:35;26.00;91.80
37240;DHT22;23130;48.760;9.178;2023-06-10T09:39:01;26.20;92.20
37240;DHT22;23130;48.760;9.178;2023-06-10T09:41:42;26.40;91.90
37240;DHT22;23130;48.760;9.178;2023-06-10T09:44:13;26.60;91.60
37240;DHT22;23130;48.760;9.178;2023-06-10T09:46:39;26.50;91.90
37240;DHT22;23130;48.760;9.178;2023-06-10T09:49:05;26.30;91.90
37240;DHT22;23130;48.760;9.178;2023-06-10T09:51:31;26.20;92.10
37240;DHT22;23130;48.760;9.178;2023-06-10T09:53:58;26.40;93.00
37240;DHT22;23130;48.760;9.178;2023-06-10T09:56:35;26.60;91.30
37240;DHT22;23130;48.760;9.178;2023-06-10T09:59:01;26.80;91.30
37240;DHT22;23130;48.760;9.178;2023-06-10T10:01:28;26.90;91.60
37240;DHT22;23130;48.760;9.178;2023-06-10T10:03:53;27.00;91.30
37240;DHT22;23130;48.760;9.178;2023-06-10T10:06:19;27.10;91.40
37240;DHT22;23130;48.760;9.178;2023-06-10T10:08:49;27.50;91.20
37240;DHT22;23130;48.760;9.178;2023-06-10T10:11:18;27.60;90.10
37240;DHT22;23130;48.760;9.178;2023-06-10T10:13:46;27.70;90.40
37240;DHT22;23130;48.760;9.178;2023-06-10T10:16:16;27.70;90.80
37240;DHT22;23130;48.760;9.178;2023-06-10T10:18:46;27.80;91.30
37240;DHT22;23130;48.760;9.178;2023-06-10T10:21:13;27.50;91.00
37240;DHT22;23130;48.760;9.178;2023-06-10T10:23:50;27.10;91.60
37240;DHT22;23130;48.760;9.178;2023-06-10T10:26:17;26.90;91.50
37240;DHT22;23130;48.760;9.178;2023-06-10T10:32:11;27.40;90.80
37240;DHT22;23130;48.760;9.178;2023-06-10T10:37:27;27.10;91.00
37240;DHT22;23130;48.760;9.178;2023-06-10T10:39:53;26.80;91.40
37240;DHT22;23130;48.760;9.178;2023-06-10T10:42:19;26.40;91.40
37240;DHT22;23130;48.760;9.178;2023-06-10T10:44:46;26.30;92.10
37240;DHT22;23130;48.760;9.178;2023-06-10T10:47:12;26.50;92.50
37240;DHT22;23130;48.760;9.178;2023-06-10T10:49:39;26.50;91.90
37240;DHT22;23130;48.760;9.178;2023-06-10T10:52:11;26.30;91.50
37240;DHT22;23130;48.760;9.178;2023-06-10T10:54:37;26.20;92.00
37240;DHT22;23130;48.760;9.178;2023-06-10T10:57:12;26.10;91.90
37240;DHT22;23130;48.760;9.178;2023-06-10T10:59:45;26.10;92.10
37240;DHT22;23130;48.760;9.178;2023-06-10T11:02:18;26.60;91.90
37240;DHT22;23130;48.760;9.178;2023-06-10T11:04:47;27.30;91.50
37240;DHT22;23130;48.760;9.178;2023-06-10T11:07:13;27.60;89.50
37240;DHT22;23130;48.760;9.178;2023-06-10T11:12:51;27.30;90.70
37240;DHT22;23130;48.760;9.178;2023-06-10T11:15:45;27.50;90.60
37240;DHT22;23130;48.760;9.178;2023-06-10T11:18:27;27.80;90.50
37240;DHT22;23130;48.760;9.178;2023-06-10T11:20:55;27.90;90.10
37240;DHT22;23130;48.760;9.178;2023-06-10T11:31:30;27.00;91.20
37240;DHT22;23130;48.760;9.178;2023-06-10T11:34:01;27.20;91.20
37240;DHT22;23130;48.760;9.178;2023-06-10T11:36:28;27.00;91.00
37240;DHT22;23130;48.760;9.178;2023-06-10T11:38:59;26.70;91.00
37240;DHT22;23130;48.760;9.178;2023-06-10T11:41:26;26.70;91.50
37240;DHT22;23130;48.760;9.178;2023-06-10T11:43:53;27.00;91.00
37240;DHT22;23130;48.760;9.178;2023-06-10T11:46:21;27.10;90.90
37240;DHT22;23130;48.760;9.178;2023-06-10T11:48:52;27.30;90.90
37240;DHT22;23130;48.760;9.178;2023-06-10T11:51:18;27.10;90.70
37240;DHT22;23130;48.760;9.178;2023-06-10T11:53:45;27.00;91.20
37240;DHT22;23130;48.760;9.178;2023-06-10T11:56:10;26.90;90.70
37240;DHT22;23130;48.760;9.178;2023-06-10T11:58:36;27.10;90.20
37240;DHT22;23130;48.760;9.178;2023-06-10T12:01:01;27.40;90.00
37240;DHT22;23130;48.760;9.178;2023-06-10T12:03:36;27.90;90.40
37240;DHT22;23130;48.760;9.178;2023-06-10T12:06:05;28.50;89.60
37240;DHT22;23130;48.760;9.178;2023-06-10T12:08:31;28.90;88.60
37240;DHT22;23130;48.760;9.178;2023-06-10T12:10:57;29.00;88.80
37240;DHT22;23130;48.760;9.178;2023-06-10T12:13:26;28.60;89.10
37240;DHT22;23130;48.760;9.178;2023-06-10T12:15:52;28.40;88.80
37240;DHT22;23130;48.760;9.178;2023-06-10T12:18:19;28.10;89.10
37240;DHT22;23130;48.760;9.178;2023-06-10T12:20:45;28.30;88.60
37240;DHT22;23130;48.760;9.178;2023-06-10T12:23:11;28.50;88.30
37240;DHT22;23130;48.760;9.178;2023-06-10T12:25:38;28.50;88.00
37240;DHT22;23130;48.760;9.178;2023-06-10T12:28:04;28.40;88.10
37240;DHT22;23130;48.760;9.178;2023-06-10T12:30:30;28.40;87.50
37240;DHT22;23130;48.760;9.178;2023-06-10T12:32:56;28.40;88.00
37240;DHT22;23130;48.760;9.178;2023-06-10T12:35:28;28.20;88.20
37240;DHT22;23130;48.760;9.178;2023-06-10T12:38:01;28.20;88.90
37240;DHT22;23130;48.760;9.178;2023-06-10T12:40:31;28.20;88.20
37240;DHT22;23130;48.760;9.178;2023-06-10T12:42:57;28.00;87.90
37240;DHT22;23130;48.760;9.178;2023-06-10T12:45:33;27.70;88.50
37240;DHT22;23130;48.760;9.178;2023-06-10T12:50:42;27.60;88.10
37240;DHT22;23130;48.760;9.178;2023-06-10T12:53:09;27.40;88.90
37240;DHT22;23130;48.760;9.178;2023-06-10T12:55:34;27.50;88.50
37240;DHT22;23130;48.760;9.178;2023-06-10T12:58:01;27.70;89.30
37240;DHT22;23130;48.760;9.178;2023-06-10T13:00:28;28.00;89.40
37240;DHT22;23130;48.760;9.178;2023-06-10T13:02:57;28.40;87.80
37240;DHT22;23130;48.760;9.178;2023-06-10T13:05:22;28.60;87.60
37240;DHT22;23130;48.760;9.178;2023-06-10T13:07:48;28.80;88.00
37240;DHT22;23130;48.760;9.178;2023-06-10T13:10:15;29.30;87.30
37240;DHT22;23130;48.760;9.178;2023-06-10T13:12:44;29.30;85.30
37240;DHT22;23130;48.760;9.178;2023-06-10T13:15:10;29.60;85.60
37240;DHT22;23130;48.760;9.178;2023-06-10T13:17:37;29.90;85.70
37240;DHT22;23130;48.760;9.178;2023-06-10T13:20:06;30.00;85.20
37240;DHT22;23130;48.760;9.178;2023-06-10T13:22:33;30.00;84.90
37240;DHT22;23130;48.760;9.178;2023-06-10T13:25:03;30.00;85.50
37240;DHT22;23130;48.760;9.178;2023-06-10T13:27:29;29.70;84.90
37240;DHT22;23130;48.760;9.178;2023-06-10T13:29:55;29.40;85.70
37240;DHT22;23130;48.760;9.178;2023-06-10T13:32:20;29.30;86.00
37240;DHT22;23130;48.760;9.178;2023-06-10T13:34:46;29.30;85.00
37240;DHT22;23130;48.760;9.178;2023-06-10T13:37:12;29.20;85.10
37240;DHT22;23130;48.760;9.178;2023-06-10T13:39:41;29.10;84.50
37240;DHT22;23130;48.760;9.178;2023-06-10T13:42:06;29.10;85.00
37240;DHT22;23130;48.760;9.178;2023-06-10T13:44:33;29.40;85.80
37240;DHT22;23130;48.760;9.178;2023-06-10T13:47:04;29.90;86.80
37240;DHT22;23130;48.760;9.178;2023-06-10T13:49:30;30.40;84.00
37240;DHT22;23130;48.760;9.178;2023-06-10T13:55:18;30.00;82.80
37240;DHT22;23130;48.760;9.178;2023-06-10T13:57:45;29.40;83.70
37240;DHT22;23130;48.760;9.178;2023-06-10T14:00:11;28.90;84.20
37240;DHT22;23130;48.760;9.178;2023-06-10T14:02:36;28.50;85.20
37240;DHT22;23130;48.760;9.178;2023-06-10T14:05:02;28.20;85.30
37240;DHT22;23130;48.760;9.178;2023-06-10T14:07:28;27.90;84.80
37240;DHT22;23130;48.760;9.178;2023-06-10T14:09:54;27.70;85.20
37240;DHT22;23130;48.760;9.178;2023-06-10T14:12:19;27.70;85.50
37240;DHT22;23130;48.760;9.178;2023-06-10T14:14:45;28.00;86.10
37240;DHT22;23130;48.760;9.178;2023-06-10T14:17:10;28.40;85.50
37240;DHT22;23130;48.760;9.178;2023-06-10T14:19:36;28.60;85.00
37240;DHT22;23130;48.760;9.178;2023-06-10T14:22:01;29.00;85.00
37240;DHT22;23130;48.760;9.178;2023-06-10T14:24:27;29.20;83.90
37240;DHT22;23130;48.760;9.178;2023-06-10T14:26:52;29.30;84.80
37240;DHT22;23130;48.760;9.178;2023-06-10T14:29:18;29.30;84.10
37240;DHT22;23130;48.760;9.178;2023-06-10T14:31:44;29.20;84.70
37240;DHT22;23130;48.760;9.178;2023-06-10T14:34:10;28.80;84.80
37240;DHT22;23130;48.760;9.178;2023-06-10T14:36:35;28.70;84.90
37240;DHT22;23130;48.760;9.178;2023-06-10T14:39:02;28.40;84.10
37240;DHT22;23130;48.760;9.178;2023-06-10T14:41:28;28.30;85.20
37240;DHT22;23130;48.760;9.178;2023-06-10T14:43:53;28.20;83.50
37240;DHT22;23130;48.760;9.178;2023-06-10T14:46:19;28.20;84.80
37240;DHT22;23130;48.760;9.178;2023-06-10T14:48:46;28.30;83.90
37240;DHT22;23130;48.760;9.178;2023-06-10T14:51:12;28.70;82.90
37240;DHT22;23130;48.760;9.178;2023-06-10T14:53:37;29.10;83.40
37240;DHT22;23130;48.760;9.178;2023-06-10T14:56:03;29.00;84.40
37240;DHT22;23130;48.760;9.178;2023-06-10T14:58:29;28.60;85.40
37240;DHT22;23130;48.760;9.178;2023-06-10T15:00:54;28.20;85.40
37240;DHT22;23130;48.760;9.178;2023-06-10T15:03:20;27.80;86.70
37240;DHT22;23130;48.760;9.178;2023-06-10T15:05:46;27.60;86.50
37240;DHT22;23130;48.760;9.178;2023-06-10T15:08:11;27.60;86.70
37240;DHT22;23130;48.760;9.178;2023-06-10T15:10:37;27.50;86.30
37240;DHT22;23130;48.760;9.178;2023-06-10T15:13:03;27.50;87.00
37240;DHT22;23130;48.760;9.178;2023-06-10T15:15:28;27.60;86.40
37240;DHT22;23130;48.760;9.178;2023-06-10T15:17:54;27.80;87.00
37240;DHT22;23130;48.760;9.178;2023-06-10T15:20:20;28.10;87.00
37240;DHT22;23130;48.760;9.178;2023-06-10T15:22:45;28.20;87.10
37240;DHT22;23130;48.760;9.178;2023-06-10T15:25:11;28.20;87.00
37240;DHT22;23130;48.760;9.178;2023-06-10T15:27:36;28.10;87.40
37240;DHT22;23130;48.760;9.178;2023-06-10T15:30:02;28.10;86.00
37240;DHT22;23130;48.760;9.178;2023-06-10T15:32:28;28.10;86.50
37240;DHT22;23130;48.760;9.178;2023-06-10T15:34:54;28.30;86.50
37240;DHT22;23130;48.760;9.178;2023-06-10T15:37:20;28.50;86.80
37240;DHT22;23130;48.760;9.178;2023-06-10T15:39:46;28.60;86.60
37240;DHT22;23130;48.760;9.178;2023-06-10T15:42:12;28.60;85.30
37240;DHT22;23130;48.760;9.178;2023-06-10T15:44:38;28.20;85.20
37240;DHT22;23130;48.760;9.178;2023-06-10T15:47:04;27.90;84.50
37240;DHT22;23130;48.760;9.178;2023-06-10T15:49:29;27.80;85.60
37240;DHT22;23130;48.760;9.178;2023-06-10T15:51:55;27.70;85.80
37240;DHT22;23130;48.760;9.178;2023-06-10T15:54:21;27.70;85.80
37240;DHT22;23130;48.760;9.178;2023-06-10T15:56:46;27.90;85.10
37240;DHT22;23130;48.760;9.178;2023-06-10T15:59:12;28.10;85.50